createdAt,value
2018-04-11T00:00:18.013Z,4.00
2018-04-11T00:01:18.028Z,4.00
2018-04-11T00:02:17.984Z,4.00
2018-04-11T00:03:17.999Z,4.00
2018-04-11T00:04:18.016Z,4.00
2018-04-11T00:05:18.403Z,4.00
2018-04-11T00:06:18.051Z,4.00
2018-04-11T00:07:18.109Z,4.00
2018-04-11T00:08:18.085Z,4.00
2018-04-11T00:09:18.103Z,4.00
2018-04-11T00:10:18.122Z,4.00
2018-04-11T00:11:18.182Z,4.00
2018-04-11T00:12:18.257Z,4.00
2018-04-11T00:13:18.173Z,4.00
2018-04-11T00:14:18.191Z,4.00
2018-04-11T00:15:18.209Z,4.00
2018-04-11T00:16:18.224Z,4.00
2018-04-11T00:17:18.243Z,4.00
2018-04-11T00:18:18.263Z,4.00
2018-04-11T00:19:18.284Z,4.00
2018-04-11T00:20:18.296Z,4.00
2018-04-11T00:21:18.312Z,4.00
2018-04-11T00:22:18.331Z,4.00
2018-04-11T00:23:18.350Z,4.00
2018-04-11T00:24:18.366Z,4.00
2018-04-11T00:25:18.382Z,4.00
2018-04-11T00:26:18.400Z,4.00
2018-04-11T00:27:18.418Z,4.00
2018-04-11T00:28:18.436Z,4.00
2018-04-11T00:29:18.451Z,4.00
2018-04-11T00:30:18.467Z,4.00
2018-04-11T00:31:18.485Z,4.00
2018-04-11T00:32:18.499Z,4.00
2018-04-11T00:33:18.516Z,4.00
2018-04-11T00:34:18.535Z,4.00
2018-04-11T00:35:18.549Z,4.00
2018-04-11T00:36:18.567Z,4.00
2018-04-11T00:37:18.641Z,4.00
2018-04-11T00:38:18.610Z,4.00
2018-04-11T00:39:18.616Z,4.00
2018-04-11T00:40:18.635Z,4.00
2018-04-11T00:41:18.648Z,4.00
2018-04-11T00:42:18.666Z,4.00
2018-04-11T00:43:18.689Z,4.00
2018-04-11T00:44:18.697Z,4.00
2018-04-11T00:45:18.714Z,4.00
2018-04-11T00:46:18.728Z,4.00
2018-04-11T00:47:18.747Z,4.00
2018-04-11T00:48:18.764Z,4.00
2018-04-11T00:49:18.781Z,4.00
2018-04-11T00:50:18.798Z,4.00
2018-04-11T00:51:18.816Z,4.00
2018-04-11T00:52:18.833Z,4.00
2018-04-11T00:53:18.851Z,4.00
2018-04-11T00:54:18.869Z,4.00
2018-04-11T00:55:18.904Z,4.00
2018-04-11T00:56:18.899Z,4.00
2018-04-11T00:57:18.914Z,4.00
2018-04-11T00:58:18.936Z,4.00
2018-04-11T00:59:18.962Z,4.00
2018-04-11T01:00:18.966Z,4.00
2018-04-11T01:01:18.981Z,4.00
2018-04-11T01:02:19.001Z,4.00
2018-04-11T01:03:19.016Z,4.00
2018-04-11T01:04:19.046Z,4.00
2018-04-11T01:05:19.060Z,4.00
2018-04-11T01:06:19.067Z,4.00
2018-04-11T01:07:19.089Z,4.00
2018-04-11T01:08:19.104Z,4.00
2018-04-11T01:09:19.117Z,4.00
2018-04-11T01:10:19.187Z,4.00
2018-04-11T01:11:19.163Z,4.00
2018-04-11T01:12:19.218Z,4.00
2018-04-11T01:13:19.184Z,4.00
2018-04-11T01:14:19.201Z,4.00
2018-04-11T01:15:19.219Z,4.00
2018-04-11T01:16:19.234Z,4.00
2018-04-11T01:17:19.255Z,4.00
2018-04-11T01:18:19.269Z,4.00
2018-04-11T01:19:19.285Z,4.00
2018-04-11T01:20:19.302Z,4.00
2018-04-11T01:21:19.319Z,4.00
2018-04-11T01:22:19.368Z,4.00
2018-04-11T01:23:19.354Z,4.00
2018-04-11T01:24:19.370Z,4.00
2018-04-11T01:25:19.390Z,4.00
2018-04-11T01:26:19.420Z,4.00
2018-04-11T01:27:19.426Z,4.00
2018-04-11T01:28:19.438Z,4.00
2018-04-11T01:29:19.454Z,4.00
2018-04-11T01:30:19.470Z,4.00
2018-04-11T01:31:19.487Z,4.00
2018-04-11T01:32:19.505Z,4.00
2018-04-11T01:33:19.520Z,4.00
2018-04-11T01:34:19.537Z,4.00
2018-04-11T01:35:19.554Z,4.00
2018-04-11T01:36:19.573Z,4.00
2018-04-11T01:37:19.586Z,4.00
2018-04-11T01:38:19.624Z,4.00
2018-04-11T01:39:19.623Z,4.00
2018-04-11T01:40:19.636Z,4.00
2018-04-11T01:41:19.656Z,4.00
2018-04-11T01:42:19.727Z,4.00
2018-04-11T01:43:19.685Z,4.00
2018-04-11T01:44:19.721Z,4.00
2018-04-11T01:45:19.720Z,4.00
2018-04-11T01:46:19.737Z,4.00
2018-04-11T01:47:19.757Z,4.00
2018-04-11T01:48:19.770Z,4.00
2018-04-11T01:49:19.787Z,4.00
2018-04-11T01:50:19.803Z,4.00
2018-04-11T01:51:19.821Z,4.00
2018-04-11T01:52:19.836Z,4.00
2018-04-11T01:53:19.855Z,4.00
2018-04-11T01:54:19.871Z,4.00
2018-04-11T01:55:19.888Z,4.00
2018-04-11T01:56:19.903Z,4.00
2018-04-11T01:57:19.923Z,4.00
2018-04-11T01:58:19.954Z,4.00
2018-04-11T01:59:19.955Z,4.00
2018-04-11T02:00:19.970Z,4.00
2018-04-11T02:01:19.989Z,4.00
2018-04-11T02:02:20.005Z,4.00
2018-04-11T02:03:20.025Z,4.00
2018-04-11T02:04:20.042Z,4.00
2018-04-11T02:05:20.053Z,4.00
2018-04-11T02:06:20.077Z,4.00
2018-04-11T02:07:20.090Z,4.00
2018-04-11T02:08:20.105Z,4.00
2018-04-11T02:09:20.121Z,4.00
2018-04-11T02:10:20.138Z,4.00
2018-04-11T02:11:20.155Z,4.00
2018-04-11T02:12:20.170Z,4.00
2018-04-11T02:13:20.187Z,4.00
2018-04-11T02:14:20.207Z,4.00
2018-04-11T02:15:20.220Z,4.00
2018-04-11T02:16:20.238Z,4.00
2018-04-11T02:17:20.253Z,4.00
2018-04-11T02:18:20.273Z,4.00
2018-04-11T02:19:20.291Z,4.00
2018-04-11T02:20:20.304Z,4.00
2018-04-11T02:21:20.317Z,4.00
2018-04-11T02:22:20.335Z,4.00
2018-04-11T02:23:20.352Z,4.00
2018-04-11T02:24:20.368Z,4.00
2018-04-11T02:25:20.385Z,4.00
2018-04-11T02:26:20.402Z,4.00
2018-04-11T02:27:20.418Z,4.00
2018-04-11T02:28:20.434Z,4.00
2018-04-11T02:29:20.556Z,4.00
2018-04-11T02:30:20.469Z,4.00
2018-04-11T02:31:20.485Z,4.00
2018-04-11T02:32:20.502Z,4.00
2018-04-11T02:33:20.517Z,4.00
2018-04-11T02:34:20.533Z,4.00
2018-04-11T02:35:20.551Z,4.00
2018-04-11T02:36:20.566Z,4.00
2018-04-11T02:37:20.586Z,4.00
2018-04-11T02:38:20.600Z,4.00
2018-04-11T02:39:20.616Z,4.00
2018-04-11T02:40:20.636Z,4.00
2018-04-11T02:41:20.655Z,4.00
2018-04-11T02:42:20.671Z,4.00
2018-04-11T02:43:20.683Z,4.00
2018-04-11T02:44:20.699Z,4.00
2018-04-11T02:45:20.714Z,4.00
2018-04-11T02:46:20.732Z,4.00
2018-04-11T02:47:20.752Z,4.00
2018-04-11T02:48:20.777Z,4.00
2018-04-11T02:49:20.779Z,4.00
2018-04-11T02:50:20.931Z,4.00
2018-04-11T02:51:20.952Z,4.00
2018-04-11T02:52:21.148Z,4.00
2018-04-11T02:53:20.857Z,4.00
2018-04-11T02:54:20.864Z,4.00
2018-04-11T02:55:20.879Z,4.00
2018-04-11T02:56:20.893Z,4.00
2018-04-11T02:57:20.909Z,4.00
2018-04-11T02:58:20.925Z,4.00
2018-04-11T02:59:20.944Z,4.00
2018-04-11T03:00:20.957Z,4.00
2018-04-11T03:01:20.976Z,4.00
2018-04-11T03:02:20.993Z,4.00
2018-04-11T03:03:21.007Z,4.00
2018-04-11T03:04:21.031Z,4.00
2018-04-11T03:05:21.038Z,4.00
2018-04-11T03:06:21.057Z,4.00
2018-04-11T03:07:21.077Z,4.00
2018-04-11T03:08:21.089Z,4.00
2018-04-11T03:09:21.166Z,4.00
2018-04-11T03:10:21.123Z,4.00
2018-04-11T03:11:21.138Z,4.00
2018-04-11T03:12:21.154Z,4.00
2018-04-11T03:13:21.169Z,4.00
2018-04-11T03:14:21.185Z,4.00
2018-04-11T03:15:21.251Z,4.00
2018-04-11T03:16:21.218Z,4.00
2018-04-11T03:17:21.234Z,4.00
2018-04-11T03:18:21.251Z,4.00
2018-04-11T03:19:21.266Z,4.00
2018-04-11T03:20:21.283Z,4.00
2018-04-11T03:21:21.304Z,4.00
2018-04-11T03:22:21.316Z,4.00
2018-04-11T03:23:21.343Z,4.00
2018-04-11T03:24:21.357Z,4.00
2018-04-11T03:25:21.375Z,4.00
2018-04-11T03:26:21.378Z,4.00
2018-04-11T03:27:21.395Z,4.00
2018-04-11T03:28:21.408Z,4.00
2018-04-11T03:29:21.425Z,4.00
2018-04-11T03:30:21.444Z,4.00
2018-04-11T03:31:21.463Z,4.00
2018-04-11T03:32:21.473Z,4.00
2018-04-11T03:33:21.491Z,4.00
2018-04-11T03:34:21.507Z,4.00
2018-04-11T03:35:21.529Z,4.00
2018-04-11T03:36:21.540Z,4.00
2018-04-11T03:37:21.554Z,4.00
2018-04-11T03:38:21.571Z,4.00
2018-04-11T03:39:21.588Z,4.00
2018-04-11T03:40:21.604Z,4.00
2018-04-11T03:41:21.623Z,4.00
2018-04-11T03:42:21.637Z,4.00
2018-04-11T03:43:21.652Z,4.00
2018-04-11T03:44:21.667Z,4.00
2018-04-11T03:45:21.683Z,4.00
2018-04-11T03:46:21.700Z,4.00
2018-04-11T03:47:21.715Z,4.00
2018-04-11T03:48:21.730Z,4.00
2018-04-11T03:49:21.765Z,4.00
2018-04-11T03:50:21.764Z,4.00
2018-04-11T03:51:21.784Z,4.00
2018-04-11T03:52:21.796Z,4.00
2018-04-11T03:53:21.815Z,4.00
2018-04-11T03:54:21.828Z,4.00
2018-04-11T03:55:21.852Z,4.00
2018-04-11T03:56:21.912Z,4.00
2018-04-11T03:57:22.078Z,4.00
2018-04-11T03:58:21.892Z,4.00
2018-04-11T03:59:21.906Z,4.00
2018-04-11T04:00:21.923Z,4.00
2018-04-11T04:01:21.943Z,4.00
2018-04-11T04:02:21.954Z,4.00
2018-04-11T04:03:21.971Z,4.00
2018-04-11T04:04:21.988Z,4.00
2018-04-11T04:05:22.008Z,4.00
2018-04-11T04:06:22.018Z,4.00
2018-04-11T04:07:22.032Z,4.00
2018-04-11T04:08:22.048Z,4.00
2018-04-11T04:09:22.066Z,4.00
2018-04-11T04:10:22.091Z,4.00
2018-04-11T04:11:22.098Z,4.00
2018-04-11T04:12:22.112Z,4.00
2018-04-11T04:13:22.129Z,4.00
2018-04-11T04:14:22.145Z,4.00
2018-04-11T04:15:22.163Z,4.00
2018-04-11T04:16:22.175Z,4.00
2018-04-11T04:17:22.195Z,4.00
2018-04-11T04:18:22.208Z,4.00
2018-04-11T04:19:22.222Z,8.00
2018-04-11T04:20:22.247Z,4.00
2018-04-11T04:21:22.260Z,8.00
2018-04-11T04:22:22.272Z,8.00
2018-04-11T04:23:22.287Z,8.00
2018-04-11T04:24:22.303Z,8.00
2018-04-11T04:25:22.372Z,4.00
2018-04-11T04:26:22.567Z,8.00
2018-04-11T04:27:22.355Z,8.00
2018-04-11T04:28:22.368Z,8.00
2018-04-11T04:29:22.437Z,12.00
2018-04-11T04:30:22.424Z,12.00
2018-04-11T04:31:22.412Z,16.00
2018-04-11T04:32:22.433Z,20.00
2018-04-11T04:33:22.447Z,20.00
2018-04-11T04:34:22.463Z,24.00
2018-04-11T04:35:22.478Z,24.00
2018-04-11T04:36:22.495Z,28.00
2018-04-11T04:37:22.562Z,32.00
2018-04-11T04:38:22.523Z,32.00
2018-04-11T04:39:22.539Z,40.00
2018-04-11T04:40:22.557Z,44.00
2018-04-11T04:41:22.570Z,48.00
2018-04-11T04:42:22.588Z,52.00
2018-04-11T04:43:22.602Z,60.00
2018-04-11T04:44:22.617Z,64.00
2018-04-11T04:45:22.632Z,72.00
2018-04-11T04:46:22.650Z,80.00
2018-04-11T04:47:22.672Z,84.00
2018-04-11T04:48:22.683Z,88.00
2018-04-11T04:49:22.698Z,100.00
2018-04-11T04:50:22.714Z,108.00
2018-04-11T04:51:22.729Z,112.00
2018-04-11T04:52:24.005Z,120.00
2018-04-11T04:53:22.759Z,128.00
2018-04-11T04:54:22.776Z,136.00
2018-04-11T04:55:23.287Z,144.00
2018-04-11T04:56:22.810Z,152.00
2018-04-11T04:57:22.824Z,160.00
2018-04-11T04:58:23.146Z,168.00
2018-04-11T04:59:22.864Z,180.00
2018-04-11T05:00:22.873Z,192.00
2018-04-11T05:01:22.907Z,196.00
2018-04-11T05:02:22.911Z,208.00
2018-04-11T05:03:22.919Z,212.00
2018-04-11T05:04:22.932Z,224.00
2018-04-11T05:05:23.279Z,232.00
2018-04-11T05:06:22.968Z,244.00
2018-04-11T05:07:22.980Z,252.00
2018-04-11T05:08:24.383Z,260.00
2018-04-11T05:09:23.021Z,272.00
2018-04-11T05:10:23.029Z,280.00
2018-04-11T05:11:23.043Z,288.00
2018-04-11T05:12:23.059Z,300.00
2018-04-11T05:13:23.073Z,312.00
2018-04-11T05:14:23.088Z,324.00
2018-04-11T05:15:23.115Z,332.00
2018-04-11T05:16:23.119Z,340.00
2018-04-11T05:17:23.136Z,348.00
2018-04-11T05:18:23.152Z,360.00
2018-04-11T05:19:23.169Z,368.00
2018-04-11T05:20:23.184Z,380.00
2018-04-11T05:21:23.201Z,392.00
2018-04-11T05:22:23.217Z,404.00
2018-04-11T05:23:23.232Z,416.00
2018-04-11T05:24:23.245Z,428.00
2018-04-11T05:25:23.265Z,440.00
2018-04-11T05:26:23.284Z,460.00
2018-04-11T05:27:23.296Z,472.00
2018-04-11T05:28:23.323Z,488.00
2018-04-11T05:29:23.328Z,508.00
2018-04-11T05:30:23.338Z,532.00
2018-04-11T05:31:23.425Z,560.00
2018-04-11T05:32:23.374Z,588.00
2018-04-11T05:33:23.385Z,612.00
2018-04-11T05:34:23.404Z,648.00
2018-04-11T05:35:23.428Z,676.00
2018-04-11T05:36:23.435Z,704.00
2018-04-11T05:37:23.451Z,728.00
2018-04-11T05:38:23.467Z,756.00
2018-04-11T05:39:23.486Z,788.00
2018-04-11T05:40:23.497Z,808.00
2018-04-11T05:41:23.512Z,832.00
2018-04-11T05:42:23.534Z,848.00
2018-04-11T05:43:23.545Z,872.00
2018-04-11T05:44:23.557Z,892.00
2018-04-11T05:45:23.771Z,924.00
2018-04-11T05:46:24.891Z,960.00
2018-04-11T05:47:24.398Z,952.00
2018-04-11T05:48:23.621Z,936.00
2018-04-11T05:49:23.641Z,924.00
2018-04-11T05:50:23.656Z,920.00
2018-04-11T05:51:23.668Z,924.00
2018-04-11T05:52:23.682Z,912.00
2018-04-11T05:53:23.742Z,928.00
2018-04-11T05:54:23.716Z,936.00
2018-04-11T05:55:23.734Z,952.00
2018-04-11T05:56:23.746Z,956.00
2018-04-11T05:57:23.766Z,972.00
2018-04-11T05:58:23.783Z,996.00
2018-04-11T05:59:23.793Z,1008.00
2018-04-11T06:00:23.809Z,1020.00
2018-04-11T06:02:23.873Z,1080.00
2018-04-11T06:03:23.858Z,1164.00
2018-04-11T06:04:23.878Z,1200.00
2018-04-11T06:05:23.886Z,1156.00
2018-04-11T06:06:23.902Z,1160.00
2018-04-11T06:07:23.918Z,1148.00
2018-04-11T06:08:23.932Z,1228.00
2018-04-11T06:09:23.948Z,1336.00
2018-04-11T06:10:23.966Z,1308.00
2018-04-11T06:11:23.982Z,1288.00
2018-04-11T06:12:23.995Z,1328.00
2018-04-11T06:13:24.012Z,1432.00
2018-04-11T06:14:24.030Z,1440.00
2018-04-11T06:15:24.045Z,1492.00
2018-04-11T06:16:24.822Z,1572.00
2018-04-11T06:17:25.628Z,1648.00
2018-04-11T06:18:24.653Z,1636.00
2018-04-11T06:20:24.817Z,1720.00
2018-04-11T06:21:24.144Z,1760.00
2018-04-11T06:22:24.157Z,1700.00
2018-04-11T06:23:24.169Z,1796.00
2018-04-11T06:24:24.198Z,1868.00
2018-04-11T06:25:24.201Z,1924.00
2018-04-11T06:27:24.644Z,1876.00
2018-04-11T06:28:24.247Z,1792.00
2018-04-11T06:29:24.262Z,1816.00
2018-04-11T06:30:24.279Z,1936.00
2018-04-11T06:31:24.301Z,2012.00
2018-04-11T06:32:24.309Z,1844.00
2018-04-11T06:33:24.326Z,1780.00
2018-04-11T06:34:24.344Z,1948.00
2018-04-11T06:35:24.359Z,1900.00
2018-04-11T06:36:24.373Z,1880.00
2018-04-11T06:37:24.401Z,1936.00
2018-04-11T06:38:24.406Z,1960.00
2018-04-11T06:39:24.423Z,1980.00
2018-04-11T06:40:24.439Z,1912.00
2018-04-11T06:41:24.456Z,1972.00
2018-04-11T06:42:24.603Z,2068.00
2018-04-11T06:43:24.500Z,2100.00
2018-04-11T06:44:24.503Z,2096.00
2018-04-11T06:45:24.521Z,2124.00
2018-04-11T06:46:24.534Z,2104.00
2018-04-11T06:47:24.553Z,2120.00
2018-04-11T06:48:24.563Z,2088.00
2018-04-11T06:49:24.581Z,2052.00
2018-04-11T06:50:25.101Z,2000.00
2018-04-11T06:51:24.613Z,2052.00
2018-04-11T06:52:24.634Z,1992.00
2018-04-11T06:53:24.645Z,1912.00
2018-04-11T06:54:24.659Z,1832.00
2018-04-11T06:55:25.744Z,1936.00
2018-04-11T06:57:24.708Z,2016.00
2018-04-11T06:58:24.726Z,2056.00
2018-04-11T06:59:24.786Z,2088.00
2018-04-11T07:00:24.755Z,2112.00
2018-04-11T07:01:24.774Z,2088.00
2018-04-11T07:02:24.805Z,2084.00
2018-04-11T07:03:24.822Z,2120.00
2018-04-11T07:04:24.818Z,2108.00
2018-04-11T07:05:24.840Z,2152.00
2018-04-11T07:06:24.851Z,2240.00
2018-04-11T07:07:24.874Z,2268.00
2018-04-11T07:08:24.981Z,2276.00
2018-04-11T07:09:25.042Z,2320.00
2018-04-11T07:10:25.020Z,2368.00
2018-04-11T07:11:24.958Z,2360.00
2018-04-11T07:12:24.946Z,2256.00
2018-04-11T07:13:24.981Z,2420.00
2018-04-11T07:14:26.327Z,2424.00
2018-04-11T07:15:24.999Z,2492.00
2018-04-11T07:16:25.012Z,2472.00
2018-04-11T07:17:25.026Z,2516.00
2018-04-11T07:18:25.423Z,2432.00
2018-04-11T07:19:25.088Z,2444.00
2018-04-11T07:20:25.074Z,2560.00
2018-04-11T07:21:25.790Z,2576.00
2018-04-11T07:22:25.106Z,2652.00
2018-04-11T07:23:25.122Z,2696.00
2018-04-11T07:24:25.776Z,2552.00
2018-04-11T07:26:25.491Z,2720.00
2018-04-11T07:27:25.890Z,2712.00
2018-04-11T07:28:25.235Z,2792.00
2018-04-11T07:29:25.215Z,2892.00
2018-04-11T07:30:25.232Z,2932.00
2018-04-11T07:31:25.245Z,2892.00
2018-04-11T07:32:25.260Z,2960.00
2018-04-11T07:33:25.277Z,2964.00
2018-04-11T07:34:25.364Z,2956.00
2018-04-11T07:36:26.151Z,2936.00
2018-04-11T07:37:25.365Z,2936.00
2018-04-11T07:38:25.357Z,2960.00
2018-04-11T07:39:25.372Z,3012.00
2018-04-11T07:40:25.445Z,3044.00
2018-04-11T07:41:25.404Z,3068.00
2018-04-11T07:42:25.424Z,3020.00
2018-04-11T07:43:25.438Z,3020.00
2018-04-11T07:44:25.455Z,3052.00
2018-04-11T07:45:25.484Z,3060.00
2018-04-11T07:46:25.526Z,3092.00
2018-04-11T07:48:25.540Z,3128.00
2018-04-11T07:49:26.082Z,3128.00
2018-04-11T07:50:25.549Z,3136.00
2018-04-11T07:51:25.566Z,3164.00
2018-04-11T07:52:25.632Z,3160.00
2018-04-11T07:53:25.600Z,3152.00
2018-04-11T07:54:25.652Z,2960.00
2018-04-11T07:55:25.727Z,3116.00
2018-04-11T07:56:25.651Z,3100.00
2018-04-11T07:57:25.664Z,2776.00
2018-04-11T07:58:25.680Z,2856.00
2018-04-11T07:59:25.703Z,2720.00
2018-04-11T08:00:25.715Z,2856.00
2018-04-11T08:01:25.732Z,3092.00
2018-04-11T08:02:25.748Z,3060.00
2018-04-11T08:03:25.869Z,3100.00
2018-04-11T08:04:25.786Z,2912.00
2018-04-11T08:05:26.221Z,3284.00
2018-04-11T08:06:27.060Z,3324.00
2018-04-11T08:07:26.145Z,3416.00
2018-04-11T08:08:25.864Z,3420.00
2018-04-11T08:09:26.675Z,3484.00
2018-04-11T08:10:26.498Z,3432.00
2018-04-11T08:12:25.911Z,2352.00
2018-04-11T08:13:25.925Z,3456.00
2018-04-11T08:14:26.472Z,3488.00
2018-04-11T08:15:26.886Z,3512.00
2018-04-11T08:16:26.593Z,3528.00
2018-04-11T08:17:25.993Z,3512.00
2018-04-11T08:18:26.022Z,3540.00
2018-04-11T08:19:26.231Z,3556.00
2018-04-11T08:20:26.059Z,3572.00
2018-04-11T08:21:26.057Z,3548.00
2018-04-11T08:22:26.073Z,3564.00
2018-04-11T08:23:26.163Z,3568.00
2018-04-11T08:24:26.993Z,3524.00
2018-04-11T08:25:26.125Z,2020.00
2018-04-11T08:27:26.155Z,3544.00
2018-04-11T08:28:26.173Z,3560.00
2018-04-11T08:29:26.185Z,3600.00
2018-04-11T08:30:26.203Z,3604.00
2018-04-11T08:31:26.227Z,3612.00
2018-04-11T08:32:26.237Z,3620.00
2018-04-11T08:33:26.274Z,3624.00
2018-04-11T08:34:26.271Z,3644.00
2018-04-11T08:35:26.375Z,3628.00
2018-04-11T08:37:26.365Z,3632.00
2018-04-11T08:38:26.341Z,3628.00
2018-04-11T08:39:27.621Z,3656.00
2018-04-11T08:40:26.370Z,3636.00
2018-04-11T08:41:26.387Z,3676.00
2018-04-11T08:42:27.174Z,3700.00
2018-04-11T08:43:26.526Z,3708.00
2018-04-11T08:44:26.438Z,3728.00
2018-04-11T08:45:26.455Z,3736.00
2018-04-11T08:46:26.476Z,3728.00
2018-04-11T08:47:26.577Z,3760.00
2018-04-11T08:48:26.506Z,3716.00
2018-04-11T08:49:26.534Z,3768.00
2018-04-11T08:50:26.579Z,3772.00
2018-04-11T08:51:26.553Z,3800.00
2018-04-11T08:52:26.574Z,3848.00
2018-04-11T08:53:26.592Z,3848.00
2018-04-11T08:54:26.607Z,3868.00
2018-04-11T08:55:26.619Z,3840.00
2018-04-11T08:56:27.357Z,3856.00
2018-04-11T08:57:26.779Z,3884.00
2018-04-11T08:58:26.684Z,3916.00
2018-04-11T08:59:27.603Z,3936.00
2018-04-11T09:00:26.702Z,3916.00
2018-04-11T09:01:26.720Z,3916.00
2018-04-11T09:02:26.737Z,3912.00
2018-04-11T09:03:26.755Z,3872.00
2018-04-11T09:04:26.770Z,3924.00
2018-04-11T09:05:26.827Z,3916.00
2018-04-11T09:06:26.860Z,3912.00
2018-04-11T09:08:26.830Z,3948.00
2018-04-11T09:09:26.851Z,3996.00
2018-04-11T09:10:28.230Z,4000.00
2018-04-11T09:11:26.883Z,4016.00
2018-04-11T09:12:26.904Z,4020.00
2018-04-11T09:13:26.921Z,4052.00
2018-04-11T09:14:26.932Z,4080.00
2018-04-11T09:15:26.948Z,4208.00
2018-04-11T09:16:26.977Z,4244.00
2018-04-11T09:17:27.000Z,4256.00
2018-04-11T09:18:27.006Z,4252.00
2018-04-11T09:19:27.022Z,4336.00
2018-04-11T09:20:27.036Z,4312.00
2018-04-11T09:21:27.050Z,4376.00
2018-04-11T09:22:27.069Z,4404.00
2018-04-11T09:23:27.084Z,4444.00
2018-04-11T09:24:27.101Z,4448.00
2018-04-11T09:25:27.118Z,4544.00
2018-04-11T09:26:27.136Z,4552.00
2018-04-11T09:27:27.456Z,4572.00
2018-04-11T09:28:27.206Z,4564.00
2018-04-11T09:29:27.188Z,4688.00
2018-04-11T09:30:27.213Z,4688.00
2018-04-11T09:31:27.219Z,4696.00
2018-04-11T09:32:27.236Z,4736.00
2018-04-11T09:33:27.255Z,4888.00
2018-04-11T09:34:29.483Z,4960.00
2018-04-11T09:35:27.288Z,4816.00
2018-04-11T09:36:27.304Z,4820.00
2018-04-11T09:37:27.327Z,4832.00
2018-04-11T09:38:27.359Z,4784.00
2018-04-11T09:39:27.869Z,4696.00
2018-04-11T09:40:27.797Z,4680.00
2018-04-11T09:41:27.457Z,4688.00
2018-04-11T09:43:27.426Z,4676.00
2018-04-11T09:44:27.444Z,4680.00
2018-04-11T09:45:27.469Z,4808.00
2018-04-11T09:46:27.481Z,4812.00
2018-04-11T09:47:27.494Z,4784.00
2018-04-11T09:48:27.522Z,4620.00
2018-04-11T09:49:27.532Z,4636.00
2018-04-11T09:50:27.568Z,4700.00
2018-04-11T09:51:28.553Z,4872.00
2018-04-11T09:52:27.587Z,4880.00
2018-04-11T09:53:27.700Z,4792.00
2018-04-11T09:54:28.366Z,4704.00
2018-04-11T09:55:27.651Z,4652.00
2018-04-11T09:56:27.657Z,4708.00
2018-04-11T09:57:28.319Z,4680.00
2018-04-11T09:58:27.696Z,4732.00
2018-04-11T09:59:27.707Z,4756.00
2018-04-11T10:00:27.758Z,4644.00
2018-04-11T10:01:28.187Z,4536.00
2018-04-11T10:02:27.767Z,2856.00
2018-04-11T10:03:27.774Z,4528.00
2018-04-11T10:04:27.794Z,4544.00
2018-04-11T10:05:27.829Z,4520.00
2018-04-11T10:06:27.826Z,4804.00
2018-04-11T10:07:27.842Z,4856.00
2018-04-11T10:08:27.915Z,4816.00
2018-04-11T10:09:27.881Z,4888.00
2018-04-11T10:10:27.909Z,4708.00
2018-04-11T10:11:27.921Z,5068.00
2018-04-11T10:12:27.930Z,5120.00
2018-04-11T10:13:27.948Z,5060.00
2018-04-11T10:14:27.983Z,5084.00
2018-04-11T10:15:28.112Z,5052.00
2018-04-11T10:16:27.999Z,4976.00
2018-04-11T10:17:28.017Z,4844.00
2018-04-11T10:18:28.034Z,4712.00
2018-04-11T10:19:28.055Z,4908.00
2018-04-11T10:20:28.077Z,4916.00
2018-04-11T10:21:28.543Z,5000.00
2018-04-11T10:22:28.284Z,4852.00
2018-04-11T10:23:28.128Z,4888.00
2018-04-11T10:24:28.145Z,4296.00
2018-04-11T10:25:28.158Z,4704.00
2018-04-11T10:26:28.174Z,5076.00
2018-04-11T10:27:28.201Z,3464.00
2018-04-11T10:28:28.582Z,5136.00
2018-04-11T10:29:28.230Z,5032.00
2018-04-11T10:30:28.245Z,2956.00
2018-04-11T10:31:28.280Z,2952.00
2018-04-11T10:32:28.283Z,3332.00
2018-04-11T10:33:28.350Z,4644.00
2018-04-11T10:34:28.327Z,3672.00
2018-04-11T10:35:28.347Z,4036.00
2018-04-11T10:36:28.352Z,4460.00
2018-04-11T10:37:28.370Z,5688.00
2018-04-11T10:38:28.503Z,4496.00
2018-04-11T10:39:28.405Z,3592.00
2018-04-11T10:40:28.432Z,3440.00
2018-04-11T10:41:28.444Z,3344.00
2018-04-11T10:42:28.478Z,3304.00
2018-04-11T10:43:28.479Z,3240.00
2018-04-11T10:44:28.500Z,3148.00
2018-04-11T10:45:28.518Z,3088.00
2018-04-11T10:46:28.529Z,2960.00
2018-04-11T10:47:28.574Z,3008.00
2018-04-11T10:48:28.566Z,3096.00
2018-04-11T10:49:28.608Z,3124.00
2018-04-11T10:50:28.629Z,2972.00
2018-04-11T10:51:28.620Z,2752.00
2018-04-11T10:52:28.636Z,2428.00
2018-04-11T10:53:28.655Z,2296.00
2018-04-11T10:54:28.676Z,2452.00
2018-04-11T10:55:29.417Z,2648.00
2018-04-11T10:56:28.730Z,2708.00
2018-04-11T10:57:28.725Z,2696.00
2018-04-11T10:58:28.743Z,2812.00
2018-04-11T10:59:28.763Z,3312.00
2018-04-11T11:00:28.783Z,3524.00
2018-04-11T11:01:29.104Z,3204.00
2018-04-11T11:02:28.815Z,2956.00
2018-04-11T11:03:28.833Z,2728.00
2018-04-11T11:04:28.854Z,2536.00
2018-04-11T11:05:28.873Z,2236.00
2018-04-11T11:06:28.890Z,2208.00
2018-04-11T11:07:28.910Z,2388.00
2018-04-11T11:08:28.919Z,2708.00
2018-04-11T11:09:28.945Z,2892.00
2018-04-11T11:10:28.955Z,2836.00
2018-04-11T11:11:29.152Z,2880.00
2018-04-11T11:12:29.002Z,2888.00
2018-04-11T11:13:29.010Z,2972.00
2018-04-11T11:14:29.032Z,3372.00
2018-04-11T11:15:29.051Z,3380.00
2018-04-11T11:16:29.099Z,3348.00
2018-04-11T11:17:29.082Z,3792.00
2018-04-11T11:18:29.099Z,4000.00
2018-04-11T11:19:29.122Z,3868.00
2018-04-11T11:20:29.138Z,3432.00
2018-04-11T11:21:29.152Z,3160.00
2018-04-11T11:22:29.179Z,3248.00
2018-04-11T11:23:29.190Z,3892.00
2018-04-11T11:24:29.230Z,5316.00
2018-04-11T11:25:29.292Z,4172.00
2018-04-11T11:26:29.243Z,5248.00
2018-04-11T11:27:29.595Z,6316.00
2018-04-11T11:28:29.277Z,6084.00
2018-04-11T11:29:29.736Z,4880.00
2018-04-11T11:30:29.360Z,5000.00
2018-04-11T11:31:29.337Z,4372.00
2018-04-11T11:32:29.353Z,4508.00
2018-04-11T11:33:29.369Z,4632.00
2018-04-11T11:34:29.408Z,4596.00
2018-04-11T11:35:29.409Z,4668.00
2018-04-11T11:36:29.427Z,4848.00
2018-04-11T11:37:29.443Z,5164.00
2018-04-11T11:38:29.469Z,5488.00
2018-04-11T11:39:29.483Z,5500.00
2018-04-11T11:40:29.502Z,5520.00
2018-04-11T11:41:29.518Z,5444.00
2018-04-11T11:42:29.538Z,5332.00
2018-04-11T11:43:29.556Z,5088.00
2018-04-11T11:44:29.571Z,4788.00
2018-04-11T11:45:29.594Z,4328.00
2018-04-11T11:46:29.613Z,3952.00
2018-04-11T11:47:29.640Z,3604.00
2018-04-11T11:48:29.653Z,3332.00
2018-04-11T11:49:29.674Z,3100.00
2018-04-11T11:50:29.687Z,2940.00
2018-04-11T11:51:29.706Z,2948.00
2018-04-11T11:52:29.723Z,3020.00
2018-04-11T11:53:29.760Z,2824.00
2018-04-11T11:54:29.768Z,2476.00
2018-04-11T11:55:29.782Z,2100.00
2018-04-11T11:56:29.802Z,1840.00
2018-04-11T11:57:29.841Z,1664.00
2018-04-11T11:58:29.867Z,1576.00
2018-04-11T12:00:29.874Z,1688.00
2018-04-11T12:01:29.892Z,1932.00
2018-04-11T12:02:29.911Z,2388.00
2018-04-11T12:03:29.926Z,2872.00
2018-04-11T12:04:29.950Z,4896.00
2018-04-11T12:05:29.962Z,4532.00
2018-04-11T12:06:29.982Z,5268.00
2018-04-11T12:07:30.001Z,5792.00
2018-04-11T12:08:30.038Z,5568.00
2018-04-11T12:09:30.699Z,5272.00
2018-04-11T12:10:30.064Z,4928.00
2018-04-11T12:11:30.087Z,4624.00
2018-04-11T12:12:30.090Z,4364.00
2018-04-11T12:13:30.756Z,4232.00
2018-04-11T12:14:30.200Z,4088.00
2018-04-11T12:15:30.332Z,3900.00
2018-04-11T12:16:30.177Z,3796.00
2018-04-11T12:17:30.187Z,3708.00
2018-04-11T12:18:30.211Z,3640.00
2018-04-11T12:19:30.220Z,3540.00
2018-04-11T12:20:30.238Z,3428.00
2018-04-11T12:21:30.263Z,3300.00
2018-04-11T12:22:30.277Z,3080.00
2018-04-11T12:23:30.296Z,2768.00
2018-04-11T12:24:30.315Z,2444.00
2018-04-11T12:25:30.349Z,2160.00
2018-04-11T12:26:30.349Z,1900.00
2018-04-11T12:27:30.414Z,1696.00
2018-04-11T12:28:30.387Z,1524.00
2018-04-11T12:29:30.423Z,1372.00
2018-04-11T12:30:30.435Z,1276.00
2018-04-11T12:31:30.441Z,1208.00
2018-04-11T12:32:30.479Z,1172.00
2018-04-11T12:33:30.492Z,1176.00
2018-04-11T12:34:30.513Z,1224.00
2018-04-11T12:35:30.510Z,1328.00
2018-04-11T12:36:30.529Z,1472.00
2018-04-11T12:37:30.571Z,1700.00
2018-04-11T12:38:30.566Z,2068.00
2018-04-11T12:40:30.610Z,3460.00
2018-04-11T12:41:30.635Z,3864.00
2018-04-11T12:42:30.636Z,3788.00
2018-04-11T12:43:30.663Z,3816.00
2018-04-11T12:44:30.698Z,4116.00
2018-04-11T12:45:30.690Z,4444.00
2018-04-11T12:46:30.709Z,5000.00
2018-04-11T12:47:31.447Z,5928.00